sensor_id;sensor_type;location;lat;lon;timestamp;temperature;humidity
9820;DHT22;4949;48.482;9.206;2022-11-15T00:02:58;11.00;66.10
9820;DHT22;4949;48.482;9.206;2022-11-15T00:07:58;11.10;65.50
9820;DHT22;4949;48.482;9.206;2022-11-15T00:13:09;11.20;65.10
9820;DHT22;4949;48.482;9.206;2022-11-15T00:18:12;11.30;64.90
9820;DHT22;4949;48.482;9.206;2022-11-15T00:23:16;11.50;64.50
9820;DHT22;4949;48.482;9.206;2022-11-15T00:28:17;11.40;64.60
9820;DHT22;4949;48.482;9.206;2022-11-15T00:33:21;11.30;65.30
9820;DHT22;4949;48.482;9.206;2022-11-15T00:38:21;11.20;66.10
9820;DHT22;4949;48.482;9.206;2022-11-15T00:43:25;11.10;66.70
9820;DHT22;4949;48.482;9.206;2022-11-15T00:48:28;11.00;67.20
9820;DHT22;4949;48.482;9.206;2022-11-15T00:53:29;10.80;68.10
9820;DHT22;4949;48.482;9.206;2022-11-15T00:58:30;10.50;68.60
9820;DHT22;4949;48.482;9.206;2022-11-15T01:03:36;10.30;69.50
9820;DHT22;4949;48.482;9.206;2022-11-15T01:08:39;10.10;69.90
9820;DHT22;4949;48.482;9.206;2022-11-15T01:13:42;10.00;70.40
9820;DHT22;4949;48.482;9.206;2022-11-15T01:18:48;10.10;70.30
9820;DHT22;4949;48.482;9.206;2022-11-15T01:23:53;10.40;68.80
9820;DHT22;4949;48.482;9.206;2022-11-15T01:28:55;10.60;67.50
9820;DHT22;4949;48.482;9.206;2022-11-15T01:33:56;10.80;66.90
9820;DHT22;4949;48.482;9.206;2022-11-15T01:38:58;10.80;66.70
9820;DHT22;4949;48.482;9.206;2022-11-15T01:49:33;10.50;68.60
9820;DHT22;4949;48.482;9.206;2022-11-15T01:54:38;10.40;69.70
9820;DHT22;4949;48.482;9.206;2022-11-15T01:59:42;10.20;70.30
9820;DHT22;4949;48.482;9.206;2022-11-15T02:04:46;10.00;70.80
9820;DHT22;4949;48.482;9.206;2022-11-15T02:09:48;9.90;72.30
9820;DHT22;4949;48.482;9.206;2022-11-15T02:14:52;9.80;72.50
9820;DHT22;4949;48.482;9.206;2022-11-15T02:20:20;9.90;73.20
9820;DHT22;4949;48.482;9.206;2022-11-15T02:31:26;9.30;73.80
9820;DHT22;4949;48.482;9.206;2022-11-15T02:42:04;9.30;74.60
9820;DHT22;4949;48.482;9.206;2022-11-15T02:47:32;9.20;74.40
9820;DHT22;4949;48.482;9.206;2022-11-15T02:52:38;9.30;73.90
9820;DHT22;4949;48.482;9.206;2022-11-15T02:57:45;9.40;73.50
9820;DHT22;4949;48.482;9.206;2022-11-15T03:18:57;9.50;73.20
9820;DHT22;4949;48.482;9.206;2022-11-15T03:24:05;9.30;73.00
9820;DHT22;4949;48.482;9.206;2022-11-15T03:29:15;9.50;72.70
9820;DHT22;4949;48.482;9.206;2022-11-15T03:34:38;9.50;72.30
9820;DHT22;4949;48.482;9.206;2022-11-15T03:39:42;9.70;71.30
9820;DHT22;4949;48.482;9.206;2022-11-15T03:45:13;9.40;72.50
9820;DHT22;4949;48.482;9.206;2022-11-15T03:50:21;9.30;73.00
9820;DHT22;4949;48.482;9.206;2022-11-15T03:55:22;9.20;73.20
9820;DHT22;4949;48.482;9.206;2022-11-15T04:00:25;9.10;73.60
9820;DHT22;4949;48.482;9.206;2022-11-15T04:05:26;9.00;74.50
9820;DHT22;4949;48.482;9.206;2022-11-15T04:10:27;8.70;75.00
9820;DHT22;4949;48.482;9.206;2022-11-15T04:15:27;8.60;75.80
9820;DHT22;4949;48.482;9.206;2022-11-15T04:20:30;8.40;76.50
9820;DHT22;4949;48.482;9.206;2022-11-15T04:25:52;8.20;76.80
9820;DHT22;4949;48.482;9.206;2022-11-15T04:30:56;8.10;77.90
9820;DHT22;4949;48.482;9.206;2022-11-15T04:35:56;8.10;78.00
9820;DHT22;4949;48.482;9.206;2022-11-15T04:41:15;8.00;78.50
9820;DHT22;4949;48.482;9.206;2022-11-15T04:46:16;8.10;78.40
9820;DHT22;4949;48.482;9.206;2022-11-15T04:51:17;7.90;78.50
9820;DHT22;4949;48.482;9.206;2022-11-15T04:56:18;7.90;78.70
9820;DHT22;4949;48.482;9.206;2022-11-15T05:01:19;7.90;78.60
9820;DHT22;4949;48.482;9.206;2022-11-15T05:06:20;7.70;78.80
9820;DHT22;4949;48.482;9.206;2022-11-15T05:11:21;7.60;79.40
9820;DHT22;4949;48.482;9.206;2022-11-15T05:16:22;7.60;79.80
9820;DHT22;4949;48.482;9.206;2022-11-15T05:21:23;7.70;79.90
9820;DHT22;4949;48.482;9.206;2022-11-15T05:26:25;7.60;79.80
9820;DHT22;4949;48.482;9.206;2022-11-15T05:31:26;7.50;79.90
9820;DHT22;4949;48.482;9.206;2022-11-15T05:36:43;7.60;79.90
9820;DHT22;4949;48.482;9.206;2022-11-15T05:41:49;7.60;80.30
9820;DHT22;4949;48.482;9.206;2022-11-15T05:46:58;7.50;80.60
9820;DHT22;4949;48.482;9.206;2022-11-15T05:51:59;7.60;80.30
9820;DHT22;4949;48.482;9.206;2022-11-15T05:57:03;7.50;81.20
9820;DHT22;4949;48.482;9.206;2022-11-15T06:02:06;7.80;79.10
9820;DHT22;4949;48.482;9.206;2022-11-15T06:07:09;8.50;76.70
9820;DHT22;4949;48.482;9.206;2022-11-15T06:12:13;8.90;74.60
9820;DHT22;4949;48.482;9.206;2022-11-15T06:17:14;9.10;73.40
9820;DHT22;4949;48.482;9.206;2022-11-15T06:22:14;9.30;72.80
9820;DHT22;4949;48.482;9.206;2022-11-15T06:27:15;9.40;72.10
9820;DHT22;4949;48.482;9.206;2022-11-15T06:32:16;9.50;71.60
9820;DHT22;4949;48.482;9.206;2022-11-15T06:37:17;9.70;71.30
9820;DHT22;4949;48.482;9.206;2022-11-15T06:42:17;9.70;71.20
9820;DHT22;4949;48.482;9.206;2022-11-15T06:47:18;9.70;70.80
9820;DHT22;4949;48.482;9.206;2022-11-15T06:52:21;9.80;70.50
9820;DHT22;4949;48.482;9.206;2022-11-15T06:57:22;9.80;70.10
9820;DHT22;4949;48.482;9.206;2022-11-15T07:02:23;9.80;70.00
9820;DHT22;4949;48.482;9.206;2022-11-15T07:07:24;9.90;69.60
9820;DHT22;4949;48.482;9.206;2022-11-15T07:12:24;9.90;69.50
9820;DHT22;4949;48.482;9.206;2022-11-15T07:17:27;9.90;70.10
9820;DHT22;4949;48.482;9.206;2022-11-15T07:22:28;10.00;69.20
9820;DHT22;4949;48.482;9.206;2022-11-15T07:27:29;10.00;69.30
9820;DHT22;4949;48.482;9.206;2022-11-15T07:32:32;10.10;69.70
9820;DHT22;4949;48.482;9.206;2022-11-15T07:37:32;10.10;69.50
9820;DHT22;4949;48.482;9.206;2022-11-15T07:42:33;10.10;69.50
9820;DHT22;4949;48.482;9.206;2022-11-15T07:47:55;10.20;69.20
9820;DHT22;4949;48.482;9.206;2022-11-15T07:52:57;10.30;69.50
9820;DHT22;4949;48.482;9.206;2022-11-15T07:58:03;10.30;69.10
9820;DHT22;4949;48.482;9.206;2022-11-15T08:03:09;10.40;69.30
9820;DHT22;4949;48.482;9.206;2022-11-15T08:08:11;10.50;69.00
9820;DHT22;4949;48.482;9.206;2022-11-15T08:13:12;10.50;68.80
9820;DHT22;4949;48.482;9.206;2022-11-15T08:18:14;10.60;68.70
9820;DHT22;4949;48.482;9.206;2022-11-15T08:23:16;10.60;68.50
9820;DHT22;4949;48.482;9.206;2022-11-15T08:28:16;10.70;69.00
9820;DHT22;4949;48.482;9.206;2022-11-15T08:33:17;10.70;68.70
9820;DHT22;4949;48.482;9.206;2022-11-15T08:38:18;10.80;68.30
9820;DHT22;4949;48.482;9.206;2022-11-15T08:43:21;10.90;67.60
9820;DHT22;4949;48.482;9.206;2022-11-15T08:48:25;10.90;68.10
9820;DHT22;4949;48.482;9.206;2022-11-15T08:53:28;11.00;67.30
9820;DHT22;4949;48.482;9.206;2022-11-15T08:58:29;11.10;66.70
9820;DHT22;4949;48.482;9.206;2022-11-15T09:03:30;11.20;66.50
9820;DHT22;4949;48.482;9.206;2022-11-15T09:08:31;11.20;69.30
9820;DHT22;4949;48.482;9.206;2022-11-15T09:13:35;11.00;69.80
9820;DHT22;4949;48.482;9.206;2022-11-15T09:18:41;10.90;70.90
9820;DHT22;4949;48.482;9.206;2022-11-15T09:23:44;10.80;71.60
9820;DHT22;4949;48.482;9.206;2022-11-15T09:28:50;10.70;72.20
9820;DHT22;4949;48.482;9.206;2022-11-15T09:33:53;10.80;72.50
9820;DHT22;4949;48.482;9.206;2022-11-15T09:38:58;10.70;73.00
9820;DHT22;4949;48.482;9.206;2022-11-15T09:49:31;10.70;73.40
9820;DHT22;4949;48.482;9.206;2022-11-15T09:54:36;10.90;73.30
9820;DHT22;4949;48.482;9.206;2022-11-15T10:05:10;11.20;72.90
9820;DHT22;4949;48.482;9.206;2022-11-15T10:10:31;11.40;73.00
9820;DHT22;4949;48.482;9.206;2022-11-15T10:15:39;11.40;73.00
9820;DHT22;4949;48.482;9.206;2022-11-15T10:21:11;11.50;72.10
9820;DHT22;4949;48.482;9.206;2022-11-15T10:26:34;11.60;71.60
9820;DHT22;4949;48.482;9.206;2022-11-15T10:31:38;11.60;71.50
9820;DHT22;4949;48.482;9.206;2022-11-15T10:36:57;11.80;71.50
9820;DHT22;4949;48.482;9.206;2022-11-15T10:42:36;11.80;71.50
9820;DHT22;4949;48.482;9.206;2022-11-15T10:47:36;11.80;71.90
9820;DHT22;4949;48.482;9.206;2022-11-15T10:52:45;11.80;72.40
9820;DHT22;4949;48.482;9.206;2022-11-15T10:57:55;11.90;72.00
9820;DHT22;4949;48.482;9.206;2022-11-15T11:08:28;12.00;71.60
9820;DHT22;4949;48.482;9.206;2022-11-15T11:13:35;12.20;71.40
9820;DHT22;4949;48.482;9.206;2022-11-15T11:19:03;12.40;71.20
9820;DHT22;4949;48.482;9.206;2022-11-15T11:51:43;12.50;69.70
9820;DHT22;4949;48.482;9.206;2022-11-15T11:56:57;12.60;69.60
9820;DHT22;4949;48.482;9.206;2022-11-15T12:02:10;12.70;69.00
9820;DHT22;4949;48.482;9.206;2022-11-15T12:13:18;12.80;68.90
9820;DHT22;4949;48.482;9.206;2022-11-15T12:18:04;12.90;68.70
9820;DHT22;4949;48.482;9.206;2022-11-15T12:23:15;13.00;68.80
9820;DHT22;4949;48.482;9.206;2022-11-15T13:01:06;13.40;69.20
9820;DHT22;4949;48.482;9.206;2022-11-15T13:06:33;13.50;69.30
9820;DHT22;4949;48.482;9.206;2022-11-15T13:11:48;13.50;69.10
9820;DHT22;4949;48.482;9.206;2022-11-15T13:16:58;13.50;68.60
9820;DHT22;4949;48.482;9.206;2022-11-15T13:21:59;13.60;68.30
9820;DHT22;4949;48.482;9.206;2022-11-15T13:27:40;13.70;68.70
9820;DHT22;4949;48.482;9.206;2022-11-15T13:32:41;13.70;69.00
9820;DHT22;4949;48.482;9.206;2022-11-15T13:37:44;13.70;68.80
9820;DHT22;4949;48.482;9.206;2022-11-15T13:42:44;13.70;68.80
9820;DHT22;4949;48.482;9.206;2022-11-15T13:47:54;13.70;69.30
9820;DHT22;4949;48.482;9.206;2022-11-15T13:53:03;13.70;69.30
9820;DHT22;4949;48.482;9.206;2022-11-15T13:58:05;13.70;69.30
9820;DHT22;4949;48.482;9.206;2022-11-15T14:03:17;13.80;70.50
9820;DHT22;4949;48.482;9.206;2022-11-15T14:08:24;13.80;72.00
9820;DHT22;4949;48.482;9.206;2022-11-15T14:13:30;13.80;71.70
9820;DHT22;4949;48.482;9.206;2022-11-15T14:23:51;13.80;72.60
9820;DHT22;4949;48.482;9.206;2022-11-15T14:28:54;13.80;72.20
9820;DHT22;4949;48.482;9.206;2022-11-15T14:33:57;13.90;70.10
9820;DHT22;4949;48.482;9.206;2022-11-15T14:38:58;14.00;69.60
9820;DHT22;4949;48.482;9.206;2022-11-15T14:44:10;14.00;69.00
9820;DHT22;4949;48.482;9.206;2022-11-15T14:49:12;14.00;71.70
9820;DHT22;4949;48.482;9.206;2022-11-15T14:54:16;13.90;72.80
9820;DHT22;4949;48.482;9.206;2022-11-15T14:59:22;13.80;73.90
9820;DHT22;4949;48.482;9.206;2022-11-15T15:04:22;13.80;74.40
9820;DHT22;4949;48.482;9.206;2022-11-15T15:09:23;13.80;75.20
9820;DHT22;4949;48.482;9.206;2022-11-15T15:14:26;13.80;76.50
9820;DHT22;4949;48.482;9.206;2022-11-15T15:19:29;13.70;76.90
9820;DHT22;4949;48.482;9.206;2022-11-15T15:24:32;13.60;77.40
9820;DHT22;4949;48.482;9.206;2022-11-15T15:29:33;13.60;77.50
9820;DHT22;4949;48.482;9.206;2022-11-15T15:34:34;13.50;78.00
9820;DHT22;4949;48.482;9.206;2022-11-15T15:39:35;13.50;79.50
9820;DHT22;4949;48.482;9.206;2022-11-15T15:44:38;13.50;77.90
9820;DHT22;4949;48.482;9.206;2022-11-15T15:49:39;13.40;73.20
9820;DHT22;4949;48.482;9.206;2022-11-15T15:54:40;13.40;72.20
9820;DHT22;4949;48.482;9.206;2022-11-15T15:59:43;13.40;72.60
9820;DHT22;4949;48.482;9.206;2022-11-15T16:04:44;13.40;73.50
9820;DHT22;4949;48.482;9.206;2022-11-15T16:09:44;13.30;75.00
9820;DHT22;4949;48.482;9.206;2022-11-15T16:15:02;13.20;76.20
9820;DHT22;4949;48.482;9.206;2022-11-15T16:20:04;13.10;76.70
9820;DHT22;4949;48.482;9.206;2022-11-15T16:25:08;13.10;76.80
9820;DHT22;4949;48.482;9.206;2022-11-15T16:30:14;13.10;76.60
9820;DHT22;4949;48.482;9.206;2022-11-15T16:35:16;13.00;76.30
9820;DHT22;4949;48.482;9.206;2022-11-15T16:40:29;13.00;77.10
9820;DHT22;4949;48.482;9.206;2022-11-15T16:45:33;13.00;78.00
9820;DHT22;4949;48.482;9.206;2022-11-15T16:50:37;13.10;78.90
9820;DHT22;4949;48.482;9.206;2022-11-15T16:55:40;12.90;78.90
9820;DHT22;4949;48.482;9.206;2022-11-15T17:00:41;13.00;79.40
9820;DHT22;4949;48.482;9.206;2022-11-15T17:05:47;12.80;79.40
9820;DHT22;4949;48.482;9.206;2022-11-15T17:10:50;12.70;79.30
9820;DHT22;4949;48.482;9.206;2022-11-15T17:16:02;12.70;79.10
9820;DHT22;4949;48.482;9.206;2022-11-15T17:21:12;12.80;79.00
9820;DHT22;4949;48.482;9.206;2022-11-15T17:26:15;12.60;78.20
9820;DHT22;4949;48.482;9.206;2022-11-15T17:31:15;12.60;77.20
9820;DHT22;4949;48.482;9.206;2022-11-15T17:36:16;12.60;76.50
9820;DHT22;4949;48.482;9.206;2022-11-15T17:41:20;12.60;76.00
9820;DHT22;4949;48.482;9.206;2022-11-15T17:46:21;12.60;75.80
9820;DHT22;4949;48.482;9.206;2022-11-15T17:51:21;12.50;75.00
9820;DHT22;4949;48.482;9.206;2022-11-15T17:56:25;12.50;74.40
9820;DHT22;4949;48.482;9.206;2022-11-15T18:01:32;12.40;73.50
9820;DHT22;4949;48.482;9.206;2022-11-15T18:06:41;12.50;73.00
9820;DHT22;4949;48.482;9.206;2022-11-15T18:11:45;12.40;73.10
9820;DHT22;4949;48.482;9.206;2022-11-15T18:16:50;12.40;73.00
9820;DHT22;4949;48.482;9.206;2022-11-15T18:21:54;12.20;72.90
9820;DHT22;4949;48.482;9.206;2022-11-15T18:27:02;12.20;72.70
9820;DHT22;4949;48.482;9.206;2022-11-15T18:32:04;12.20;72.50
9820;DHT22;4949;48.482;9.206;2022-11-15T18:37:14;12.20;72.50
9820;DHT22;4949;48.482;9.206;2022-11-15T18:42:14;12.30;72.30
9820;DHT22;4949;48.482;9.206;2022-11-15T18:47:18;12.20;72.00
9820;DHT22;4949;48.482;9.206;2022-11-15T18:52:18;12.20;72.20
9820;DHT22;4949;48.482;9.206;2022-11-15T18:57:22;12.30;72.30
9820;DHT22;4949;48.482;9.206;2022-11-15T19:02:23;12.30;72.30
9820;DHT22;4949;48.482;9.206;2022-11-15T19:07:29;12.20;72.30
9820;DHT22;4949;48.482;9.206;2022-11-15T19:12:32;12.30;72.00
9820;DHT22;4949;48.482;9.206;2022-11-15T19:17:35;12.30;71.80
9820;DHT22;4949;48.482;9.206;2022-11-15T19:22:38;12.30;70.40
9820;DHT22;4949;48.482;9.206;2022-11-15T19:27:42;12.40;70.80
9820;DHT22;4949;48.482;9.206;2022-11-15T19:32:45;12.30;70.30
9820;DHT22;4949;48.482;9.206;2022-11-15T19:37:48;12.30;69.50
9820;DHT22;4949;48.482;9.206;2022-11-15T19:42:50;12.30;69.10
9820;DHT22;4949;48.482;9.206;2022-11-15T19:47:52;12.40;68.80
9820;DHT22;4949;48.482;9.206;2022-11-15T19:52:53;12.30;67.60
9820;DHT22;4949;48.482;9.206;2022-11-15T19:57:56;12.30;67.30
9820;DHT22;4949;48.482;9.206;2022-11-15T20:02:56;12.40;67.20
9820;DHT22;4949;48.482;9.206;2022-11-15T20:07:57;12.40;66.90
9820;DHT22;4949;48.482;9.206;2022-11-15T20:12:58;12.40;66.30
9820;DHT22;4949;48.482;9.206;2022-11-15T20:17:59;12.40;66.30
9820;DHT22;4949;48.482;9.206;2022-11-15T20:23:00;12.50;65.10
9820;DHT22;4949;48.482;9.206;2022-11-15T20:28:07;12.60;64.10
9820;DHT22;4949;48.482;9.206;2022-11-15T20:33:11;12.60;63.80
9820;DHT22;4949;48.482;9.206;2022-11-15T20:38:13;12.70;63.60
9820;DHT22;4949;48.482;9.206;2022-11-15T20:43:22;12.80;63.50
9820;DHT22;4949;48.482;9.206;2022-11-15T20:48:23;12.80;62.80
9820;DHT22;4949;48.482;9.206;2022-11-15T20:53:24;12.90;62.50
9820;DHT22;4949;48.482;9.206;2022-11-15T20:58:25;12.80;63.30
9820;DHT22;4949;48.482;9.206;2022-11-15T21:03:29;12.80;64.00
9820;DHT22;4949;48.482;9.206;2022-11-15T21:08:30;12.80;65.00
9820;DHT22;4949;48.482;9.206;2022-11-15T21:13:50;12.80;65.00
9820;DHT22;4949;48.482;9.206;2022-11-15T21:18:52;12.80;65.10
9820;DHT22;4949;48.482;9.206;2022-11-15T21:23:52;12.70;64.50
9820;DHT22;4949;48.482;9.206;2022-11-15T21:28:53;12.70;65.20
9820;DHT22;4949;48.482;9.206;2022-11-15T21:33:54;12.70;65.10
9820;DHT22;4949;48.482;9.206;2022-11-15T21:38:54;12.60;63.30
9820;DHT22;4949;48.482;9.206;2022-11-15T21:44:01;12.60;63.00
9820;DHT22;4949;48.482;9.206;2022-11-15T21:49:04;12.60;62.70
9820;DHT22;4949;48.482;9.206;2022-11-15T21:54:05;12.60;61.90
9820;DHT22;4949;48.482;9.206;2022-11-15T21:59:08;12.70;61.90
9820;DHT22;4949;48.482;9.206;2022-11-15T22:04:09;12.80;61.00
9820;DHT22;4949;48.482;9.206;2022-11-15T22:09:12;12.80;62.00
9820;DHT22;4949;48.482;9.206;2022-11-15T22:14:13;12.70;65.20
9820;DHT22;4949;48.482;9.206;2022-11-15T22:19:13;12.60;67.90
9820;DHT22;4949;48.482;9.206;2022-11-15T22:24:14;12.50;68.90
9820;DHT22;4949;48.482;9.206;2022-11-15T22:29:18;12.40;69.70
9820;DHT22;4949;48.482;9.206;2022-11-15T22:34:18;12.30;70.90
9820;DHT22;4949;48.482;9.206;2022-11-15T22:39:21;12.20;72.40
9820;DHT22;4949;48.482;9.206;2022-11-15T22:44:22;12.10;72.90
9820;DHT22;4949;48.482;9.206;2022-11-15T22:49:25;12.10;73.00
9820;DHT22;4949;48.482;9.206;2022-11-15T22:54:30;12.00;73.30
9820;DHT22;4949;48.482;9.206;2022-11-15T22:59:31;12.00;73.90
9820;DHT22;4949;48.482;9.206;2022-11-15T23:04:34;11.90;75.00
9820;DHT22;4949;48.482;9.206;2022-11-15T23:09:35;11.90;76.70
9820;DHT22;4949;48.482;9.206;2022-11-15T23:14:36;11.80;77.20
9820;DHT22;4949;48.482;9.206;2022-11-15T23:19:39;11.80;78.20
9820;DHT22;4949;48.482;9.206;2022-11-15T23:24:40;11.70;78.70
9820;DHT22;4949;48.482;9.206;2022-11-15T23:29:41;11.60;79.50
9820;DHT22;4949;48.482;9.206;2022-11-15T23:35:02;11.60;79.90
9820;DHT22;4949;48.482;9.206;2022-11-15T23:40:07;11.60;79.50
9820;DHT22;4949;48.482;9.206;2022-11-15T23:45:09;11.60;79.00
9820;DHT22;4949;48.482;9.206;2022-11-15T23:50:10;11.60;78.30
9820;DHT22;4949;48.482;9.206;2022-11-15T23:55:11;11.60;77.80
